sensor_id;sensor_type;location;lat;lon;timestamp;P1;durP1;ratioP1;P2;durP2;ratioP2
66972;SDS011;53902;51.466;-2.586;2022-09-03T00:02:13;6.22;;;3.15;;
66972;SDS011;53902;51.466;-2.586;2022-09-03T00:10:29;3.95;;;3.00;;
66972;SDS011;53902;51.466;-2.586;2022-09-03T00:13:00;3.25;;;2.70;;
66972;SDS011;53902;51.466;-2.586;2022-09-03T00:15:31;5.18;;;3.28;;
66972;SDS011;53902;51.466;-2.586;2022-09-03T00:18:11;3.67;;;2.90;;
66972;SDS011;53902;51.466;-2.586;2022-09-03T00:23:11;4.13;;;3.38;;
66972;SDS011;53902;51.466;-2.586;2022-09-03T00:25:42;6.80;;;3.65;;
66972;SDS011;53902;51.466;-2.586;2022-09-03T00:28:10;5.15;;;3.28;;
66972;SDS011;53902;51.466;-2.586;2022-09-03T00:30:41;4.45;;;3.55;;
66972;SDS011;53902;51.466;-2.586;2022-09-03T00:33:20;4.95;;;3.47;;
66972;SDS011;53902;51.466;-2.586;2022-09-03T00:35:49;6.88;;;4.30;;
66972;SDS011;53902;51.466;-2.586;2022-09-03T00:38:18;3.70;;;3.35;;
66972;SDS011;53902;51.466;-2.586;2022-09-03T00:40:59;3.92;;;3.35;;
66972;SDS011;53902;51.466;-2.586;2022-09-03T01:27:08;5.93;;;3.38;;
66972;SDS011;53902;51.466;-2.586;2022-09-03T01:35:00;4.30;;;3.08;;
66972;SDS011;53902;51.466;-2.586;2022-09-03T01:40:33;4.93;;;3.25;;
66972;SDS011;53902;51.466;-2.586;2022-09-03T01:46:10;5.50;;;3.60;;
66972;SDS011;53902;51.466;-2.586;2022-09-03T01:51:28;3.88;;;3.30;;
66972;SDS011;53902;51.466;-2.586;2022-09-03T02:04:26;4.93;;;3.67;;
66972;SDS011;53902;51.466;-2.586;2022-09-03T02:06:55;5.53;;;3.77;;
66972;SDS011;53902;51.466;-2.586;2022-09-03T02:09:27;5.20;;;3.80;;
66972;SDS011;53902;51.466;-2.586;2022-09-03T02:12:03;3.80;;;3.40;;
66972;SDS011;53902;51.466;-2.586;2022-09-03T02:14:35;4.63;;;3.50;;
66972;SDS011;53902;51.466;-2.586;2022-09-03T02:17:00;4.15;;;3.38;;
66972;SDS011;53902;51.466;-2.586;2022-09-03T02:19:26;6.33;;;3.90;;
66972;SDS011;53902;51.466;-2.586;2022-09-03T02:21:55;6.55;;;3.78;;
66972;SDS011;53902;51.466;-2.586;2022-09-03T02:24:21;4.70;;;3.80;;
66972;SDS011;53902;51.466;-2.586;2022-09-03T02:26:50;5.72;;;3.75;;
66972;SDS011;53902;51.466;-2.586;2022-09-03T02:29:15;6.20;;;3.90;;
66972;SDS011;53902;51.466;-2.586;2022-09-03T02:31:42;4.93;;;3.90;;
66972;SDS011;53902;51.466;-2.586;2022-09-03T02:34:08;7.38;;;3.65;;
66972;SDS011;53902;51.466;-2.586;2022-09-03T02:36:40;5.57;;;3.70;;
66972;SDS011;53902;51.466;-2.586;2022-09-03T02:39:07;5.50;;;3.70;;
66972;SDS011;53902;51.466;-2.586;2022-09-03T02:41:33;5.43;;;3.90;;
66972;SDS011;53902;51.466;-2.586;2022-09-03T02:46:51;5.68;;;4.28;;
66972;SDS011;53902;51.466;-2.586;2022-09-03T02:49:21;5.70;;;3.60;;
66972;SDS011;53902;51.466;-2.586;2022-09-03T02:51:47;7.40;;;4.20;;
66972;SDS011;53902;51.466;-2.586;2022-09-03T02:54:14;4.88;;;4.07;;
66972;SDS011;53902;51.466;-2.586;2022-09-03T02:56:40;7.23;;;4.33;;
66972;SDS011;53902;51.466;-2.586;2022-09-03T02:59:06;5.97;;;4.57;;
66972;SDS011;53902;51.466;-2.586;2022-09-03T03:03:58;6.60;;;5.25;;
66972;SDS011;53902;51.466;-2.586;2022-09-03T03:06:26;7.43;;;5.17;;
66972;SDS011;53902;51.466;-2.586;2022-09-03T03:08:52;7.43;;;5.57;;
66972;SDS011;53902;51.466;-2.586;2022-09-03T03:11:19;6.75;;;5.05;;
66972;SDS011;53902;51.466;-2.586;2022-09-03T03:13:49;6.25;;;5.03;;
66972;SDS011;53902;51.466;-2.586;2022-09-03T03:16:15;6.38;;;4.80;;
66972;SDS011;53902;51.466;-2.586;2022-09-03T03:18:43;8.55;;;4.88;;
66972;SDS011;53902;51.466;-2.586;2022-09-03T03:21:12;8.35;;;5.28;;
66972;SDS011;53902;51.466;-2.586;2022-09-03T03:23:39;8.32;;;5.40;;
66972;SDS011;53902;51.466;-2.586;2022-09-03T03:26:09;8.10;;;5.67;;
66972;SDS011;53902;51.466;-2.586;2022-09-03T03:28:35;6.65;;;5.00;;
66972;SDS011;53902;51.466;-2.586;2022-09-03T03:31:08;7.30;;;5.60;;
66972;SDS011;53902;51.466;-2.586;2022-09-03T03:33:35;7.25;;;5.28;;
66972;SDS011;53902;51.466;-2.586;2022-09-03T03:36:13;8.97;;;5.83;;
66972;SDS011;53902;51.466;-2.586;2022-09-03T03:38:42;8.48;;;5.80;;
66972;SDS011;53902;51.466;-2.586;2022-09-03T03:41:17;7.90;;;5.57;;
66972;SDS011;53902;51.466;-2.586;2022-09-03T03:43:51;9.20;;;6.35;;
66972;SDS011;53902;51.466;-2.586;2022-09-03T03:46:18;7.43;;;5.43;;
66972;SDS011;53902;51.466;-2.586;2022-09-03T03:48:46;10.13;;;5.60;;
66972;SDS011;53902;51.466;-2.586;2022-09-03T03:51:12;8.88;;;5.90;;
66972;SDS011;53902;51.466;-2.586;2022-09-03T03:53:37;11.77;;;6.87;;
66972;SDS011;53902;51.466;-2.586;2022-09-03T03:56:04;13.07;;;7.17;;
66972;SDS011;53902;51.466;-2.586;2022-09-03T03:58:34;13.77;;;7.90;;
66972;SDS011;53902;51.466;-2.586;2022-09-03T04:01:07;13.63;;;8.07;;
66972;SDS011;53902;51.466;-2.586;2022-09-03T04:03:53;13.77;;;7.70;;
66972;SDS011;53902;51.466;-2.586;2022-09-03T04:06:20;12.63;;;7.20;;
66972;SDS011;53902;51.466;-2.586;2022-09-03T04:08:46;14.70;;;8.13;;
66972;SDS011;53902;51.466;-2.586;2022-09-03T04:11:16;13.95;;;8.48;;
66972;SDS011;53902;51.466;-2.586;2022-09-03T04:13:43;14.65;;;8.38;;
66972;SDS011;53902;51.466;-2.586;2022-09-03T04:16:16;15.60;;;8.40;;
66972;SDS011;53902;51.466;-2.586;2022-09-03T04:18:42;16.45;;;8.57;;
66972;SDS011;53902;51.466;-2.586;2022-09-03T04:21:12;15.70;;;8.82;;
66972;SDS011;53902;51.466;-2.586;2022-09-03T04:23:40;14.32;;;7.80;;
66972;SDS011;53902;51.466;-2.586;2022-09-03T04:26:07;14.75;;;8.45;;
66972;SDS011;53902;51.466;-2.586;2022-09-03T04:28:34;13.57;;;8.38;;
66972;SDS011;53902;51.466;-2.586;2022-09-03T04:31:04;14.77;;;8.87;;
66972;SDS011;53902;51.466;-2.586;2022-09-03T04:33:33;16.23;;;9.48;;
66972;SDS011;53902;51.466;-2.586;2022-09-03T04:36:05;13.48;;;8.60;;
66972;SDS011;53902;51.466;-2.586;2022-09-03T04:38:35;20.30;;;9.70;;
66972;SDS011;53902;51.466;-2.586;2022-09-03T04:41:01;15.85;;;8.85;;
66972;SDS011;53902;51.466;-2.586;2022-09-03T04:43:27;13.20;;;7.68;;
66972;SDS011;53902;51.466;-2.586;2022-09-03T04:45:57;16.67;;;8.23;;
66972;SDS011;53902;51.466;-2.586;2022-09-03T04:48:29;12.00;;;7.82;;
66972;SDS011;53902;51.466;-2.586;2022-09-03T04:53:38;16.70;;;8.32;;
66972;SDS011;53902;51.466;-2.586;2022-09-03T04:58:43;16.13;;;8.60;;
66972;SDS011;53902;51.466;-2.586;2022-09-03T05:01:15;14.93;;;8.23;;
66972;SDS011;53902;51.466;-2.586;2022-09-03T05:03:44;14.68;;;8.18;;
66972;SDS011;53902;51.466;-2.586;2022-09-03T05:06:10;15.80;;;9.30;;
66972;SDS011;53902;51.466;-2.586;2022-09-03T05:08:37;12.85;;;8.10;;
66972;SDS011;53902;51.466;-2.586;2022-09-03T05:11:04;14.85;;;8.70;;
66972;SDS011;53902;51.466;-2.586;2022-09-03T05:13:33;12.38;;;7.72;;
66972;SDS011;53902;51.466;-2.586;2022-09-03T05:16:03;13.48;;;7.97;;
66972;SDS011;53902;51.466;-2.586;2022-09-03T05:18:30;14.27;;;8.48;;
66972;SDS011;53902;51.466;-2.586;2022-09-03T05:21:06;17.27;;;9.50;;
66972;SDS011;53902;51.466;-2.586;2022-09-03T05:23:37;12.43;;;7.85;;
66972;SDS011;53902;51.466;-2.586;2022-09-03T05:26:04;12.65;;;8.20;;
66972;SDS011;53902;51.466;-2.586;2022-09-03T05:28:40;15.27;;;8.50;;
66972;SDS011;53902;51.466;-2.586;2022-09-03T05:31:09;14.15;;;8.05;;
66972;SDS011;53902;51.466;-2.586;2022-09-03T05:33:37;12.98;;;7.90;;
66972;SDS011;53902;51.466;-2.586;2022-09-03T05:36:05;13.90;;;8.00;;
66972;SDS011;53902;51.466;-2.586;2022-09-03T05:38:34;14.60;;;7.57;;
66972;SDS011;53902;51.466;-2.586;2022-09-03T05:40:59;14.27;;;7.47;;
66972;SDS011;53902;51.466;-2.586;2022-09-03T05:43:26;14.48;;;7.80;;
66972;SDS011;53902;51.466;-2.586;2022-09-03T05:46:01;13.63;;;7.32;;
66972;SDS011;53902;51.466;-2.586;2022-09-03T05:48:36;14.60;;;7.60;;
66972;SDS011;53902;51.466;-2.586;2022-09-03T05:51:08;13.52;;;7.63;;
66972;SDS011;53902;51.466;-2.586;2022-09-03T05:53:40;13.25;;;7.18;;
66972;SDS011;53902;51.466;-2.586;2022-09-03T05:58:37;15.93;;;7.07;;
66972;SDS011;53902;51.466;-2.586;2022-09-03T06:01:23;13.07;;;7.03;;
66972;SDS011;53902;51.466;-2.586;2022-09-03T06:04:02;11.00;;;6.38;;
66972;SDS011;53902;51.466;-2.586;2022-09-03T06:06:30;12.93;;;7.00;;
66972;SDS011;53902;51.466;-2.586;2022-09-03T06:08:59;11.90;;;6.57;;
66972;SDS011;53902;51.466;-2.586;2022-09-03T06:11:35;14.93;;;7.43;;
66972;SDS011;53902;51.466;-2.586;2022-09-03T06:14:03;12.95;;;6.85;;
66972;SDS011;53902;51.466;-2.586;2022-09-03T06:16:29;10.80;;;6.45;;
66972;SDS011;53902;51.466;-2.586;2022-09-03T06:18:58;9.80;;;6.28;;
66972;SDS011;53902;51.466;-2.586;2022-09-03T06:21:24;13.33;;;7.07;;
66972;SDS011;53902;51.466;-2.586;2022-09-03T06:23:50;11.87;;;7.10;;
66972;SDS011;53902;51.466;-2.586;2022-09-03T06:26:17;12.40;;;7.05;;
66972;SDS011;53902;51.466;-2.586;2022-09-03T06:28:43;11.05;;;6.75;;
66972;SDS011;53902;51.466;-2.586;2022-09-03T06:31:11;11.50;;;6.77;;
66972;SDS011;53902;51.466;-2.586;2022-09-03T06:33:54;10.73;;;6.40;;
66972;SDS011;53902;51.466;-2.586;2022-09-03T06:36:21;12.50;;;7.43;;
66972;SDS011;53902;51.466;-2.586;2022-09-03T06:38:51;12.60;;;7.10;;
66972;SDS011;53902;51.466;-2.586;2022-09-03T06:41:21;11.73;;;6.53;;
66972;SDS011;53902;51.466;-2.586;2022-09-03T06:44:03;12.10;;;7.18;;
66972;SDS011;53902;51.466;-2.586;2022-09-03T06:46:33;11.20;;;7.25;;
66972;SDS011;53902;51.466;-2.586;2022-09-03T06:48:59;15.90;;;7.97;;
66972;SDS011;53902;51.466;-2.586;2022-09-03T06:51:25;11.60;;;7.57;;
66972;SDS011;53902;51.466;-2.586;2022-09-03T06:53:53;12.13;;;7.57;;
66972;SDS011;53902;51.466;-2.586;2022-09-03T06:56:23;11.77;;;7.60;;
66972;SDS011;53902;51.466;-2.586;2022-09-03T06:58:54;13.02;;;8.10;;
66972;SDS011;53902;51.466;-2.586;2022-09-03T07:01:22;9.93;;;7.13;;
66972;SDS011;53902;51.466;-2.586;2022-09-03T07:03:55;12.25;;;6.78;;
66972;SDS011;53902;51.466;-2.586;2022-09-03T07:06:26;13.50;;;7.22;;
66972;SDS011;53902;51.466;-2.586;2022-09-03T07:08:53;12.00;;;7.32;;
66972;SDS011;53902;51.466;-2.586;2022-09-03T07:11:20;10.85;;;7.40;;
66972;SDS011;53902;51.466;-2.586;2022-09-03T07:13:48;11.57;;;7.45;;
66972;SDS011;53902;51.466;-2.586;2022-09-03T07:16:16;12.38;;;7.43;;
66972;SDS011;53902;51.466;-2.586;2022-09-03T07:18:46;11.27;;;7.32;;
66972;SDS011;53902;51.466;-2.586;2022-09-03T07:21:18;10.77;;;7.45;;
66972;SDS011;53902;51.466;-2.586;2022-09-03T07:23:45;12.48;;;7.20;;
66972;SDS011;53902;51.466;-2.586;2022-09-03T07:26:16;11.63;;;7.37;;
66972;SDS011;53902;51.466;-2.586;2022-09-03T07:28:47;13.40;;;8.20;;
66972;SDS011;53902;51.466;-2.586;2022-09-03T07:31:14;12.68;;;7.40;;
66972;SDS011;53902;51.466;-2.586;2022-09-03T07:33:45;11.07;;;7.25;;
66972;SDS011;53902;51.466;-2.586;2022-09-03T07:36:12;11.50;;;7.20;;
66972;SDS011;53902;51.466;-2.586;2022-09-03T07:38:41;10.40;;;7.03;;
66972;SDS011;53902;51.466;-2.586;2022-09-03T07:41:08;11.10;;;7.20;;
66972;SDS011;53902;51.466;-2.586;2022-09-03T07:43:36;10.93;;;7.10;;
66972;SDS011;53902;51.466;-2.586;2022-09-03T07:46:13;11.57;;;6.60;;
66972;SDS011;53902;51.466;-2.586;2022-09-03T07:48:47;10.07;;;6.60;;
66972;SDS011;53902;51.466;-2.586;2022-09-03T07:51:16;11.07;;;7.03;;
66972;SDS011;53902;51.466;-2.586;2022-09-03T07:53:46;11.00;;;6.97;;
66972;SDS011;53902;51.466;-2.586;2022-09-03T07:56:12;10.48;;;6.97;;
66972;SDS011;53902;51.466;-2.586;2022-09-03T07:58:38;11.63;;;7.40;;
66972;SDS011;53902;51.466;-2.586;2022-09-03T08:03:55;10.43;;;6.93;;
66972;SDS011;53902;51.466;-2.586;2022-09-03T08:06:22;9.18;;;6.63;;
66972;SDS011;53902;51.466;-2.586;2022-09-03T08:09:13;11.23;;;7.22;;
66972;SDS011;53902;51.466;-2.586;2022-09-03T08:11:39;10.48;;;6.45;;
66972;SDS011;53902;51.466;-2.586;2022-09-03T08:14:08;11.93;;;6.95;;
66972;SDS011;53902;51.466;-2.586;2022-09-03T08:16:37;10.30;;;6.32;;
66972;SDS011;53902;51.466;-2.586;2022-09-03T08:19:20;9.77;;;6.47;;
66972;SDS011;53902;51.466;-2.586;2022-09-03T08:21:46;9.98;;;6.68;;
66972;SDS011;53902;51.466;-2.586;2022-09-03T08:24:14;9.23;;;6.20;;
66972;SDS011;53902;51.466;-2.586;2022-09-03T08:26:45;10.10;;;6.22;;
66972;SDS011;53902;51.466;-2.586;2022-09-03T08:29:13;9.23;;;6.00;;
66972;SDS011;53902;51.466;-2.586;2022-09-03T08:31:46;9.85;;;6.43;;
66972;SDS011;53902;51.466;-2.586;2022-09-03T08:34:12;10.60;;;5.57;;
66972;SDS011;53902;51.466;-2.586;2022-09-03T08:36:38;7.35;;;5.28;;
66972;SDS011;53902;51.466;-2.586;2022-09-03T08:39:12;6.80;;;5.03;;
66972;SDS011;53902;51.466;-2.586;2022-09-03T08:47:05;6.10;;;4.57;;
66972;SDS011;53902;51.466;-2.586;2022-09-03T08:54:50;6.70;;;4.45;;
66972;SDS011;53902;51.466;-2.586;2022-09-03T08:57:16;5.85;;;4.63;;
66972;SDS011;53902;51.466;-2.586;2022-09-03T08:59:43;5.80;;;4.57;;
66972;SDS011;53902;51.466;-2.586;2022-09-03T09:04:58;10.07;;;5.38;;
66972;SDS011;53902;51.466;-2.586;2022-09-03T09:07:45;7.47;;;5.07;;
66972;SDS011;53902;51.466;-2.586;2022-09-03T09:21:30;6.97;;;5.07;;
66972;SDS011;53902;51.466;-2.586;2022-09-03T09:24:03;10.73;;;5.97;;
66972;SDS011;53902;51.466;-2.586;2022-09-03T09:26:32;9.15;;;5.82;;
66972;SDS011;53902;51.466;-2.586;2022-09-03T09:29:04;11.20;;;7.30;;
66972;SDS011;53902;51.466;-2.586;2022-09-03T09:31:37;11.77;;;7.45;;
66972;SDS011;53902;51.466;-2.586;2022-09-03T09:34:05;13.15;;;7.93;;
66972;SDS011;53902;51.466;-2.586;2022-09-03T09:36:32;12.90;;;8.32;;
66972;SDS011;53902;51.466;-2.586;2022-09-03T09:41:58;12.23;;;8.43;;
66972;SDS011;53902;51.466;-2.586;2022-09-03T09:44:32;12.43;;;7.90;;
66972;SDS011;53902;51.466;-2.586;2022-09-03T09:52:20;15.18;;;8.10;;
66972;SDS011;53902;51.466;-2.586;2022-09-03T09:54:50;13.30;;;8.75;;
66972;SDS011;53902;51.466;-2.586;2022-09-03T09:57:22;13.68;;;9.10;;
66972;SDS011;53902;51.466;-2.586;2022-09-03T10:00:00;13.75;;;8.48;;
66972;SDS011;53902;51.466;-2.586;2022-09-03T10:02:28;14.57;;;8.60;;
66972;SDS011;53902;51.466;-2.586;2022-09-03T10:04:57;12.83;;;8.27;;
66972;SDS011;53902;51.466;-2.586;2022-09-03T10:07:53;14.45;;;8.60;;
66972;SDS011;53902;51.466;-2.586;2022-09-03T10:10:23;13.25;;;8.27;;
66972;SDS011;53902;51.466;-2.586;2022-09-03T10:18:17;11.13;;;6.87;;
66972;SDS011;53902;51.466;-2.586;2022-09-03T10:23:58;10.80;;;6.63;;
66972;SDS011;53902;51.466;-2.586;2022-09-03T10:26:28;8.70;;;6.00;;
66972;SDS011;53902;51.466;-2.586;2022-09-03T10:28:58;11.35;;;6.07;;
66972;SDS011;53902;51.466;-2.586;2022-09-03T10:31:32;8.48;;;5.50;;
66972;SDS011;53902;51.466;-2.586;2022-09-03T10:37:04;6.75;;;4.88;;
66972;SDS011;53902;51.466;-2.586;2022-09-03T10:45:03;8.93;;;5.38;;
66972;SDS011;53902;51.466;-2.586;2022-09-03T10:50:51;6.28;;;4.97;;
66972;SDS011;53902;51.466;-2.586;2022-09-03T10:56:10;8.23;;;5.18;;
66972;SDS011;53902;51.466;-2.586;2022-09-03T11:06:56;4.40;;;3.45;;
66972;SDS011;53902;51.466;-2.586;2022-09-03T11:14:46;6.03;;;3.80;;
66972;SDS011;53902;51.466;-2.586;2022-09-03T11:20:22;4.78;;;3.30;;
66972;SDS011;53902;51.466;-2.586;2022-09-03T11:22:50;5.82;;;3.83;;
66972;SDS011;53902;51.466;-2.586;2022-09-03T11:25:18;5.47;;;4.20;;
66972;SDS011;53902;51.466;-2.586;2022-09-03T11:28:24;9.40;;;4.45;;
66972;SDS011;53902;51.466;-2.586;2022-09-03T11:33:22;5.57;;;4.10;;
66972;SDS011;53902;51.466;-2.586;2022-09-03T11:35:54;5.38;;;3.97;;
66972;SDS011;53902;51.466;-2.586;2022-09-03T11:38:22;6.90;;;3.97;;
66972;SDS011;53902;51.466;-2.586;2022-09-03T11:43:41;5.88;;;4.50;;
66972;SDS011;53902;51.466;-2.586;2022-09-03T11:56:26;4.90;;;4.40;;
66972;SDS011;53902;51.466;-2.586;2022-09-03T11:59:16;6.03;;;4.68;;
66972;SDS011;53902;51.466;-2.586;2022-09-03T12:01:57;6.38;;;4.75;;
66972;SDS011;53902;51.466;-2.586;2022-09-03T12:17:55;6.23;;;4.10;;
66972;SDS011;53902;51.466;-2.586;2022-09-03T12:20:41;7.47;;;3.75;;
66972;SDS011;53902;51.466;-2.586;2022-09-03T12:23:13;6.00;;;3.60;;
66972;SDS011;53902;51.466;-2.586;2022-09-03T12:25:55;4.72;;;3.60;;
66972;SDS011;53902;51.466;-2.586;2022-09-03T12:28:26;5.55;;;3.95;;
66972;SDS011;53902;51.466;-2.586;2022-09-03T12:31:04;5.38;;;3.65;;
66972;SDS011;53902;51.466;-2.586;2022-09-03T12:34:07;4.20;;;3.30;;
66972;SDS011;53902;51.466;-2.586;2022-09-03T12:36:38;3.17;;;2.88;;
66972;SDS011;53902;51.466;-2.586;2022-09-03T12:39:10;4.60;;;3.00;;
66972;SDS011;53902;51.466;-2.586;2022-09-03T12:41:37;2.92;;;2.63;;
66972;SDS011;53902;51.466;-2.586;2022-09-03T12:44:10;3.75;;;2.65;;
66972;SDS011;53902;51.466;-2.586;2022-09-03T12:46:36;2.97;;;2.30;;
66972;SDS011;53902;51.466;-2.586;2022-09-03T12:49:03;4.87;;;2.70;;
66972;SDS011;53902;51.466;-2.586;2022-09-03T12:51:35;4.00;;;2.97;;
66972;SDS011;53902;51.466;-2.586;2022-09-03T12:54:03;2.72;;;2.10;;
66972;SDS011;53902;51.466;-2.586;2022-09-03T12:56:31;3.45;;;2.10;;
66972;SDS011;53902;51.466;-2.586;2022-09-03T12:59:02;6.88;;;2.17;;
66972;SDS011;53902;51.466;-2.586;2022-09-03T13:01:46;2.58;;;2.00;;
66972;SDS011;53902;51.466;-2.586;2022-09-03T13:04:16;3.00;;;2.13;;
66972;SDS011;53902;51.466;-2.586;2022-09-03T13:09:18;3.60;;;1.90;;
66972;SDS011;53902;51.466;-2.586;2022-09-03T13:11:45;3.75;;;2.22;;
66972;SDS011;53902;51.466;-2.586;2022-09-03T13:14:16;4.72;;;2.65;;
66972;SDS011;53902;51.466;-2.586;2022-09-03T13:22:17;5.10;;;2.30;;
66972;SDS011;53902;51.466;-2.586;2022-09-03T13:28:01;3.13;;;2.40;;
66972;SDS011;53902;51.466;-2.586;2022-09-03T13:30:42;5.13;;;2.23;;
66972;SDS011;53902;51.466;-2.586;2022-09-03T13:33:21;2.53;;;2.15;;
66972;SDS011;53902;51.466;-2.586;2022-09-03T13:36:07;4.53;;;2.40;;
66972;SDS011;53902;51.466;-2.586;2022-09-03T13:38:36;3.50;;;2.22;;
66972;SDS011;53902;51.466;-2.586;2022-09-03T13:44:18;4.53;;;2.53;;
66972;SDS011;53902;51.466;-2.586;2022-09-03T13:46:59;5.32;;;2.60;;
66972;SDS011;53902;51.466;-2.586;2022-09-03T13:52:40;6.80;;;3.10;;
66972;SDS011;53902;51.466;-2.586;2022-09-03T13:57:57;6.38;;;2.90;;
66972;SDS011;53902;51.466;-2.586;2022-09-03T14:00:35;4.95;;;2.53;;
66972;SDS011;53902;51.466;-2.586;2022-09-03T14:03:10;5.18;;;2.97;;
66972;SDS011;53902;51.466;-2.586;2022-09-03T14:05:59;3.67;;;2.00;;
66972;SDS011;53902;51.466;-2.586;2022-09-03T14:08:39;2.83;;;2.20;;
66972;SDS011;53902;51.466;-2.586;2022-09-03T14:24:18;3.58;;;2.08;;
66972;SDS011;53902;51.466;-2.586;2022-09-03T14:26:53;1.77;;;1.67;;
66972;SDS011;53902;51.466;-2.586;2022-09-03T14:29:31;2.70;;;1.80;;
66972;SDS011;53902;51.466;-2.586;2022-09-03T14:32:20;3.42;;;1.60;;
66972;SDS011;53902;51.466;-2.586;2022-09-03T14:40:51;3.92;;;2.30;;
66972;SDS011;53902;51.466;-2.586;2022-09-03T14:58:01;3.67;;;2.10;;
66972;SDS011;53902;51.466;-2.586;2022-09-03T15:00:52;3.65;;;1.90;;
66972;SDS011;53902;51.466;-2.586;2022-09-03T15:09:32;1.92;;;1.65;;
66972;SDS011;53902;51.466;-2.586;2022-09-03T15:12:24;2.38;;;1.50;;
66972;SDS011;53902;51.466;-2.586;2022-09-03T15:14:57;3.95;;;1.65;;
66972;SDS011;53902;51.466;-2.586;2022-09-03T15:17:29;2.30;;;1.50;;
66972;SDS011;53902;51.466;-2.586;2022-09-03T15:26:04;1.25;;;1.17;;
66972;SDS011;53902;51.466;-2.586;2022-09-03T15:34:18;2.45;;;1.10;;
66972;SDS011;53902;51.466;-2.586;2022-09-03T15:37:16;3.83;;;1.20;;
66972;SDS011;53902;51.466;-2.586;2022-09-03T15:39:44;1.08;;;1.00;;
66972;SDS011;53902;51.466;-2.586;2022-09-03T15:44:51;3.20;;;1.30;;
66972;SDS011;53902;51.466;-2.586;2022-09-03T15:58:10;0.80;;;0.80;;
66972;SDS011;53902;51.466;-2.586;2022-09-03T16:01:10;2.85;;;0.85;;
66972;SDS011;53902;51.466;-2.586;2022-09-03T16:09:50;1.33;;;0.90;;
66972;SDS011;53902;51.466;-2.586;2022-09-03T16:12:26;2.67;;;1.20;;
66972;SDS011;53902;51.466;-2.586;2022-09-03T16:14:59;1.58;;;1.02;;
66972;SDS011;53902;51.466;-2.586;2022-09-03T16:23:11;1.60;;;0.90;;
66972;SDS011;53902;51.466;-2.586;2022-09-03T16:26:02;0.70;;;0.70;;
66972;SDS011;53902;51.466;-2.586;2022-09-03T16:31:18;1.80;;;1.10;;
66972;SDS011;53902;51.466;-2.586;2022-09-03T16:50:18;1.67;;;0.88;;
66972;SDS011;53902;51.466;-2.586;2022-09-03T16:58:57;3.20;;;1.13;;
66972;SDS011;53902;51.466;-2.586;2022-09-03T17:01:35;2.08;;;1.15;;
66972;SDS011;53902;51.466;-2.586;2022-09-03T17:04:31;2.00;;;1.08;;
66972;SDS011;53902;51.466;-2.586;2022-09-03T17:24:27;1.98;;;1.27;;
66972;SDS011;53902;51.466;-2.586;2022-09-03T17:47:19;3.13;;;1.17;;
66972;SDS011;53902;51.466;-2.586;2022-09-03T17:49:50;3.45;;;1.25;;
66972;SDS011;53902;51.466;-2.586;2022-09-03T17:52:29;5.13;;;1.20;;
66972;SDS011;53902;51.466;-2.586;2022-09-03T17:54:57;1.80;;;0.98;;
66972;SDS011;53902;51.466;-2.586;2022-09-03T17:57:37;2.13;;;1.23;;
66972;SDS011;53902;51.466;-2.586;2022-09-03T18:00:08;2.13;;;1.27;;
66972;SDS011;53902;51.466;-2.586;2022-09-03T18:02:38;2.55;;;1.42;;
66972;SDS011;53902;51.466;-2.586;2022-09-03T18:05:18;3.10;;;1.23;;
66972;SDS011;53902;51.466;-2.586;2022-09-03T18:10:26;2.85;;;1.25;;
66972;SDS011;53902;51.466;-2.586;2022-09-03T18:12:55;4.20;;;1.45;;
66972;SDS011;53902;51.466;-2.586;2022-09-03T18:15:31;1.20;;;1.10;;
66972;SDS011;53902;51.466;-2.586;2022-09-03T18:18:28;3.35;;;1.80;;
66972;SDS011;53902;51.466;-2.586;2022-09-03T18:23:48;2.10;;;1.10;;
66972;SDS011;53902;51.466;-2.586;2022-09-03T18:26:33;3.83;;;1.00;;
66972;SDS011;53902;51.466;-2.586;2022-09-03T18:29:36;2.28;;;1.17;;
66972;SDS011;53902;51.466;-2.586;2022-09-03T18:32:28;1.35;;;0.93;;
66972;SDS011;53902;51.466;-2.586;2022-09-03T18:35:13;2.45;;;1.15;;
66972;SDS011;53902;51.466;-2.586;2022-09-03T18:37:57;2.65;;;1.27;;
66972;SDS011;53902;51.466;-2.586;2022-09-03T18:56:48;2.70;;;1.30;;
66972;SDS011;53902;51.466;-2.586;2022-09-03T19:11:42;2.22;;;1.23;;
66972;SDS011;53902;51.466;-2.586;2022-09-03T19:14:35;3.75;;;1.30;;
66972;SDS011;53902;51.466;-2.586;2022-09-03T19:20:28;4.88;;;1.42;;
66972;SDS011;53902;51.466;-2.586;2022-09-03T19:23:15;1.30;;;1.20;;
66972;SDS011;53902;51.466;-2.586;2022-09-03T19:26:03;6.82;;;1.42;;
66972;SDS011;53902;51.466;-2.586;2022-09-03T19:28:55;2.78;;;1.30;;
66972;SDS011;53902;51.466;-2.586;2022-09-03T19:31:49;2.63;;;1.50;;
66972;SDS011;53902;51.466;-2.586;2022-09-03T19:49:55;3.47;;;1.50;;
66972;SDS011;53902;51.466;-2.586;2022-09-03T19:52:52;2.78;;;1.30;;
66972;SDS011;53902;51.466;-2.586;2022-09-03T19:55:51;2.42;;;1.45;;
66972;SDS011;53902;51.466;-2.586;2022-09-03T19:58:42;3.30;;;1.48;;
66972;SDS011;53902;51.466;-2.586;2022-09-03T20:01:32;4.10;;;1.95;;
66972;SDS011;53902;51.466;-2.586;2022-09-03T20:04:21;2.75;;;1.60;;
66972;SDS011;53902;51.466;-2.586;2022-09-03T20:07:23;3.83;;;1.50;;
66972;SDS011;53902;51.466;-2.586;2022-09-03T20:10:15;2.05;;;1.55;;
66972;SDS011;53902;51.466;-2.586;2022-09-03T20:21:22;2.55;;;1.67;;
66972;SDS011;53902;51.466;-2.586;2022-09-03T20:24:11;4.63;;;2.30;;
66972;SDS011;53902;51.466;-2.586;2022-09-03T20:32:10;2.50;;;1.80;;
66972;SDS011;53902;51.466;-2.586;2022-09-03T20:37:44;3.30;;;1.77;;
66972;SDS011;53902;51.466;-2.586;2022-09-03T20:51:23;3.03;;;1.83;;
66972;SDS011;53902;51.466;-2.586;2022-09-03T20:56:34;2.20;;;1.70;;
66972;SDS011;53902;51.466;-2.586;2022-09-03T21:01:43;3.25;;;2.00;;
66972;SDS011;53902;51.466;-2.586;2022-09-03T21:10:26;5.93;;;1.73;;
66972;SDS011;53902;51.466;-2.586;2022-09-03T21:20:54;1.98;;;1.52;;
66972;SDS011;53902;51.466;-2.586;2022-09-03T21:23:28;2.33;;;1.90;;
66972;SDS011;53902;51.466;-2.586;2022-09-03T21:37:30;2.70;;;1.75;;
66972;SDS011;53902;51.466;-2.586;2022-09-03T21:39:59;5.80;;;2.60;;
66972;SDS011;53902;51.466;-2.586;2022-09-03T21:42:36;3.70;;;2.20;;
66972;SDS011;53902;51.466;-2.586;2022-09-03T21:48:18;3.47;;;2.17;;
66972;SDS011;53902;51.466;-2.586;2022-09-03T21:50:57;4.23;;;2.00;;
66972;SDS011;53902;51.466;-2.586;2022-09-03T22:01:23;2.00;;;1.75;;
66972;SDS011;53902;51.466;-2.586;2022-09-03T22:03:56;3.72;;;1.80;;
66972;SDS011;53902;51.466;-2.586;2022-09-03T22:06:47;3.13;;;2.07;;
66972;SDS011;53902;51.466;-2.586;2022-09-03T22:12:24;2.05;;;1.70;;
66972;SDS011;53902;51.466;-2.586;2022-09-03T22:14:56;3.42;;;2.05;;
66972;SDS011;53902;51.466;-2.586;2022-09-03T22:20:23;3.78;;;2.03;;
66972;SDS011;53902;51.466;-2.586;2022-09-03T22:22:54;3.50;;;2.17;;
66972;SDS011;53902;51.466;-2.586;2022-09-03T22:28:01;3.67;;;2.20;;
66972;SDS011;53902;51.466;-2.586;2022-09-03T22:30:36;2.15;;;1.75;;
66972;SDS011;53902;51.466;-2.586;2022-09-03T22:33:20;2.97;;;1.90;;
66972;SDS011;53902;51.466;-2.586;2022-09-03T22:36:06;2.22;;;1.85;;
66972;SDS011;53902;51.466;-2.586;2022-09-03T22:39:12;3.15;;;2.00;;
66972;SDS011;53902;51.466;-2.586;2022-09-03T22:50:21;4.25;;;2.05;;
66972;SDS011;53902;51.466;-2.586;2022-09-03T22:58:19;3.53;;;2.30;;
66972;SDS011;53902;51.466;-2.586;2022-09-03T23:00:52;3.13;;;1.88;;
66972;SDS011;53902;51.466;-2.586;2022-09-03T23:03:28;2.88;;;1.85;;
66972;SDS011;53902;51.466;-2.586;2022-09-03T23:06:16;3.42;;;1.88;;
66972;SDS011;53902;51.466;-2.586;2022-09-03T23:09:02;2.78;;;2.20;;
66972;SDS011;53902;51.466;-2.586;2022-09-03T23:11:50;1.88;;;1.70;;
66972;SDS011;53902;51.466;-2.586;2022-09-03T23:14:22;2.75;;;2.00;;
66972;SDS011;53902;51.466;-2.586;2022-09-03T23:17:04;2.70;;;1.95;;
66972;SDS011;53902;51.466;-2.586;2022-09-03T23:24:46;4.00;;;2.03;;
66972;SDS011;53902;51.466;-2.586;2022-09-03T23:27:20;4.35;;;2.20;;
66972;SDS011;53902;51.466;-2.586;2022-09-03T23:32:22;2.60;;;2.30;;
66972;SDS011;53902;51.466;-2.586;2022-09-03T23:34:47;3.70;;;2.37;;